KGLS

Scholes International at Galveston Airport

Galveston, Texas, USA
METAR KGLS 240052Z AUTO 09007KT 10SM CLR 26/23 A3000 RMK AO2 SLP158 T02610228
Observed Flight Rules
May-24 @ 00:52 UTC (an hour ago) Visual Flight Rules
Wind Visibility Clouds
90° at 7 knots 10 miles
  • Clear skies
Temperatures Readings
Current 26°C / 79°F
Dewpoint 23°C / 73°F
Humidity 84%
Altimeter 30" Hg
Pressure 1015.8 hPa
Elevation 6
METAR KGLS 240052Z AUTO 09007KT 10SM CLR 26/23 A3000 RMK AO2 SLP158 T02610228
Observed Flight Rules
May-24 @ 00:52 UTC
(an hour ago)
VFR
Wind Visibility
90° at 7 knots 10 miles
Clouds
  • Clear skies
Temperature Dewpoint
26°C / 79°F 23°C / 73°F
Humidity Altimeter Pressure
84% 30" Hg 1015.8 hPa